Terminal Aerodrome Forecast
Issued by NWS Corpus Christi, TX

Home | Current Version | Previous Version | Text Only | Print | Product List | Glossary On
Versions: 1 2 3 4 5 6 7 8 9 10 11 12 13 14 15 16 17 18 19 20
329
FTUS44 KCRP 241720
TAFVCT
TAF
KVCT 241720Z 2418/2518 17015G22KT P6SM VCSH BKN020 OVC050
      TEMPO 2418/2419 4SM SHRA OVC020
     FM241900 17018G25KT P6SM VCTS BKN025CB BKN100
      TEMPO 2419/2423 VRB25G35KT 3SM TSRA BKN030CB OVC150
     FM250100 17014KT P6SM SCT040 SCT100
     FM250700 19008KT 4SM BR SCT008
     FM250900 20006KT 1SM BR BKN005
      TEMPO 2509/2512 1/4SM FG VV005
     FM251500 22008KT P6SM FEW020=

USA.gov is the U.S. government's official web portal to all federal, state and local government web resources and services.